createdAt,value
2022-12-23T00:00:46.321Z,39.55
2022-12-23T00:03:33.272Z,36.42
2022-12-23T00:06:20.354Z,36.10
2022-12-23T00:09:07.098Z,39.38
2022-12-23T00:12:12.119Z,41.08
2022-12-23T00:15:08.078Z,37.00
2022-12-23T00:17:54.846Z,34.72
2022-12-23T00:20:41.628Z,42.40
2022-12-23T00:23:28.493Z,43.05
2022-12-23T00:26:16.757Z,38.38
2022-12-23T00:29:03.464Z,37.28
2022-12-23T00:31:50.356Z,40.63
2022-12-23T00:34:37.422Z,40.05
2022-12-23T00:37:24.202Z,36.15
2022-12-23T00:40:32.346Z,41.38
2022-12-23T00:43:19.325Z,39.05
2022-12-23T00:46:06.431Z,41.45
2022-12-23T00:49:11.035Z,43.05
2022-12-23T00:51:57.954Z,39.45
2022-12-23T00:54:44.847Z,36.13
2022-12-23T00:57:31.637Z,39.90
2022-12-23T01:00:18.658Z,40.45
2022-12-23T01:03:23.672Z,39.95
2022-12-23T01:06:10.685Z,39.45
2022-12-23T01:08:57.768Z,43.05
2022-12-23T01:11:44.691Z,41.50
2022-12-23T01:14:30.783Z,41.22
2022-12-23T01:17:17.091Z,37.33
2022-12-23T01:20:04.073Z,43.35
2022-12-23T01:22:50.966Z,44.35
2022-12-23T01:25:37.152Z,51.00
2022-12-23T01:28:23.653Z,45.05
2022-12-23T01:31:11.885Z,42.75
2022-12-23T01:33:58.398Z,45.90
2022-12-23T01:36:44.886Z,49.55
2022-12-23T01:39:30.916Z,48.38
2022-12-23T01:42:36.705Z,50.70
2022-12-23T01:45:26.132Z,54.22
2022-12-23T01:48:18.634Z,50.70
2022-12-23T01:51:08.224Z,52.42
2022-12-23T01:53:56.999Z,53.60
2022-12-23T01:56:43.437Z,59.78
2022-12-23T01:59:48.734Z,59.60
2022-12-23T02:02:56.018Z,58.80
2022-12-23T02:05:43.876Z,66.95
2022-12-23T02:08:53.759Z,67.13
2022-12-23T02:11:59.233Z,88.38
2022-12-23T02:15:04.260Z,66.78
2022-12-23T02:17:50.641Z,67.88
2022-12-23T02:20:37.450Z,75.82
2022-12-23T02:23:27.495Z,66.07
2022-12-23T02:26:32.634Z,66.82
2022-12-23T02:29:39.559Z,59.03
2022-12-23T02:32:31.865Z,73.88
2022-12-23T02:35:28.541Z,68.00
2022-12-23T02:38:25.711Z,63.95
2022-12-23T02:41:20.972Z,72.70
2022-12-23T02:44:30.562Z,68.25
2022-12-23T02:47:21.268Z,65.18
2022-12-23T02:50:11.843Z,63.22
2022-12-23T02:52:59.510Z,65.43
2022-12-23T02:55:47.485Z,76.05
2022-12-23T02:58:36.727Z,65.78
2022-12-23T03:01:26.242Z,86.30
2022-12-23T03:04:12.710Z,71.50
2022-12-23T03:07:07.139Z,59.88
2022-12-23T03:10:06.994Z,84.47
2022-12-23T03:12:53.590Z,82.88
2022-12-23T03:15:58.699Z,71.00
2022-12-23T03:18:45.128Z,87.22
2022-12-23T03:21:37.939Z,66.03
2022-12-23T03:24:37.749Z,76.03
2022-12-23T03:27:46.517Z,100.53
2022-12-23T03:30:34.542Z,77.38
2022-12-23T03:33:23.531Z,76.47
2022-12-23T03:36:22.003Z,74.80
2022-12-23T03:39:10.856Z,93.68
2022-12-23T03:42:00.463Z,129.48
2022-12-23T03:45:19.339Z,96.70
2022-12-23T03:47:57.912Z,74.43
2022-12-23T03:50:51.314Z,89.88
2022-12-23T03:56:45.661Z,123.20
2022-12-23T03:59:43.341Z,119.85
2022-12-23T04:02:42.479Z,88.80
2022-12-23T04:05:38.254Z,131.60
2022-12-23T04:08:45.578Z,128.88
2022-12-23T04:11:32.754Z,103.53
2022-12-23T04:14:20.952Z,96.35
2022-12-23T04:17:13.326Z,119.57
2022-12-23T04:20:27.135Z,98.78
2022-12-23T04:23:19.323Z,95.33
2022-12-23T04:26:08.071Z,92.70
2022-12-23T04:28:55.050Z,101.45
2022-12-23T04:31:54.107Z,86.68
2022-12-23T04:34:46.511Z,85.30
2022-12-23T04:37:33.107Z,73.53
2022-12-23T04:40:20.234Z,78.13
2022-12-23T04:43:07.109Z,63.53
2022-12-23T04:45:53.477Z,85.35
2022-12-23T04:48:40.058Z,71.40
2022-12-23T04:51:29.244Z,74.78
2022-12-23T04:54:15.914Z,74.75
2022-12-23T04:57:02.278Z,69.90
2022-12-23T05:02:54.869Z,69.00
2022-12-23T05:05:45.522Z,77.75
2022-12-23T05:08:33.067Z,67.97
2022-12-23T05:11:19.512Z,135.52
2022-12-23T05:14:05.823Z,73.47
2022-12-23T05:16:52.074Z,75.35
2022-12-23T05:19:39.038Z,78.20
2022-12-23T05:22:25.597Z,72.00
2022-12-23T05:25:11.919Z,74.63
2022-12-23T05:27:58.515Z,73.88
2022-12-23T05:30:45.832Z,77.00
2022-12-23T05:33:43.511Z,64.50
2022-12-23T05:36:36.328Z,60.88
2022-12-23T05:39:27.460Z,78.83
2022-12-23T05:42:32.779Z,78.57
2022-12-23T05:45:19.812Z,63.35
2022-12-23T05:48:07.021Z,82.97
2022-12-23T05:50:55.296Z,62.17
2022-12-23T05:53:44.925Z,60.00
2022-12-23T05:56:58.793Z,77.18
2022-12-23T05:59:46.139Z,63.20
2022-12-23T06:02:36.406Z,72.82
2022-12-23T06:08:33.473Z,65.68
2022-12-23T06:11:20.885Z,61.72
2022-12-23T06:14:29.324Z,63.15
2022-12-23T06:20:42.363Z,65.63
2022-12-23T06:23:30.232Z,62.10
2022-12-23T06:26:21.959Z,59.50
2022-12-23T06:32:13.096Z,53.83
2022-12-23T06:35:00.297Z,54.67
2022-12-23T06:37:47.466Z,51.90
2022-12-23T06:40:34.027Z,58.25
2022-12-23T06:43:21.129Z,51.97
2022-12-23T06:46:08.006Z,56.38
2022-12-23T06:48:54.490Z,52.50
2022-12-23T06:51:41.669Z,52.08
2022-12-23T06:54:28.197Z,54.10
2022-12-23T06:57:14.493Z,55.78
2022-12-23T07:00:00.915Z,50.47
2022-12-23T07:02:48.173Z,52.92
2022-12-23T07:05:37.743Z,52.60
2022-12-23T07:08:24.902Z,59.65
2022-12-23T07:11:11.551Z,52.90
2022-12-23T07:13:58.733Z,51.58
2022-12-23T07:16:45.797Z,53.58
2022-12-23T07:19:34.956Z,54.97
2022-12-23T07:22:22.094Z,55.00
2022-12-23T07:25:09.750Z,54.53
2022-12-23T07:27:57.189Z,54.60
2022-12-23T07:30:45.281Z,51.15
2022-12-23T07:33:32.425Z,50.22
2022-12-23T07:36:19.212Z,47.65
2022-12-23T07:39:06.459Z,48.17
2022-12-23T07:42:16.959Z,49.92
2022-12-23T07:45:06.659Z,51.20
2022-12-23T07:47:55.055Z,52.03
2022-12-23T07:50:41.639Z,53.15
2022-12-23T07:53:28.322Z,53.13
2022-12-23T07:56:15.459Z,53.67
2022-12-23T07:59:02.048Z,55.13
2022-12-23T08:01:49.089Z,55.17
2022-12-23T08:04:39.586Z,53.30
2022-12-23T08:07:28.721Z,53.58
2022-12-23T08:10:15.347Z,53.13
2022-12-23T08:13:03.204Z,58.97
2022-12-23T08:15:50.811Z,48.03
2022-12-23T08:18:41.883Z,53.10
2022-12-23T08:21:29.003Z,52.28
2022-12-23T08:24:16.320Z,51.83
2022-12-23T08:27:03.402Z,51.45
2022-12-23T08:29:50.698Z,56.22
2022-12-23T08:32:37.319Z,51.50
2022-12-23T08:35:23.825Z,51.80
2022-12-23T08:38:15.043Z,56.03
2022-12-23T08:41:02.379Z,55.88
2022-12-23T08:43:49.598Z,55.45
2022-12-23T08:46:36.325Z,52.00
2022-12-23T08:49:23.466Z,51.92
2022-12-23T08:55:09.853Z,54.13
2022-12-23T08:57:56.571Z,53.35
2022-12-23T09:00:43.848Z,55.15
2022-12-23T09:03:31.255Z,54.92
2022-12-23T09:06:28.988Z,53.42
2022-12-23T09:09:17.140Z,52.17
2022-12-23T09:12:05.922Z,56.38
2022-12-23T09:14:52.880Z,56.00
2022-12-23T09:38:54.216Z,39.97
2022-12-23T09:42:06.031Z,42.03
2022-12-23T09:45:06.613Z,39.45
2022-12-23T09:47:56.196Z,35.97
2022-12-23T09:50:43.314Z,38.40
2022-12-23T09:53:53.924Z,38.67
2022-12-23T09:56:49.330Z,35.60
2022-12-23T09:59:46.166Z,35.83
2022-12-23T10:02:52.143Z,36.60
2022-12-23T10:05:49.073Z,34.70
2022-12-23T10:08:44.683Z,38.03
2022-12-23T10:11:41.087Z,39.75
2022-12-23T10:14:32.197Z,39.83
2022-12-23T10:17:26.867Z,36.05
2022-12-23T10:20:19.476Z,39.17
2022-12-23T10:23:08.353Z,36.70
2022-12-23T10:25:55.207Z,32.92
2022-12-23T10:28:42.239Z,31.83
2022-12-23T10:31:42.660Z,27.67
2022-12-23T10:34:34.943Z,29.05
2022-12-23T10:37:43.783Z,26.83
2022-12-23T10:40:56.035Z,27.92
2022-12-23T10:47:16.617Z,26.92
2022-12-23T10:50:35.451Z,29.05
2022-12-23T10:53:50.640Z,33.30
2022-12-23T10:56:37.543Z,27.83
2022-12-23T10:59:26.929Z,29.13
2022-12-23T11:02:16.845Z,30.35
2022-12-23T11:05:03.678Z,28.10
2022-12-23T11:07:58.861Z,26.73
2022-12-23T11:10:45.823Z,25.23
2022-12-23T11:13:43.493Z,31.10
2022-12-23T11:16:30.195Z,33.38
2022-12-23T11:19:16.974Z,25.25
2022-12-23T11:22:03.445Z,30.67
2022-12-23T11:24:49.743Z,23.48
2022-12-23T11:27:36.747Z,27.10
2022-12-23T11:30:23.560Z,24.90
2022-12-23T11:33:18.312Z,28.98
2022-12-23T11:36:07.559Z,27.58
2022-12-23T11:39:05.977Z,28.13
2022-12-23T11:41:53.802Z,24.58
2022-12-23T11:44:42.427Z,28.90
2022-12-23T11:47:42.482Z,29.55
2022-12-23T11:50:28.889Z,29.88
2022-12-23T11:53:21.297Z,27.40
2022-12-23T11:56:15.977Z,29.23
2022-12-23T11:59:04.311Z,30.13
2022-12-23T12:01:50.852Z,34.88
2022-12-23T12:04:37.212Z,30.25
2022-12-23T12:07:24.327Z,33.47
2022-12-23T12:10:16.360Z,33.15
2022-12-23T12:13:04.364Z,29.58
2022-12-23T12:16:20.112Z,30.02
2022-12-23T12:19:16.823Z,25.55
2022-12-23T12:22:19.287Z,26.90
2022-12-23T12:25:19.618Z,25.15
2022-12-23T12:28:08.085Z,29.20
2022-12-23T12:31:00.616Z,26.08
2022-12-23T12:33:57.764Z,29.07
2022-12-23T12:36:59.176Z,28.38
2022-12-23T12:39:48.815Z,30.77
2022-12-23T12:42:37.389Z,26.13
2022-12-23T12:45:24.104Z,29.63
2022-12-23T12:48:30.045Z,27.95
2022-12-23T12:51:34.913Z,28.83
2022-12-23T12:54:38.898Z,28.27
2022-12-23T12:57:25.801Z,31.58
2022-12-23T13:00:34.590Z,24.00
2022-12-23T13:03:27.248Z,27.75
2022-12-23T13:06:22.787Z,23.70
2022-12-23T13:09:18.735Z,28.40
2022-12-23T13:12:17.389Z,27.40
2022-12-23T13:15:25.599Z,32.10
2022-12-23T13:18:21.343Z,28.67
2022-12-23T13:21:07.792Z,23.88
2022-12-23T13:24:26.612Z,24.10
2022-12-23T13:27:34.057Z,24.23
2022-12-23T13:30:21.704Z,27.88
2022-12-23T13:33:14.425Z,27.00
2022-12-23T13:36:14.701Z,24.50
2022-12-23T13:39:20.104Z,23.05
2022-12-23T13:42:09.409Z,30.13
2022-12-23T13:44:57.012Z,26.50
2022-12-23T13:47:51.659Z,28.13
2022-12-23T13:50:53.152Z,25.52
2022-12-23T13:53:48.820Z,25.13
2022-12-23T13:56:47.269Z,27.77
2022-12-23T13:59:41.938Z,30.45
2022-12-23T14:05:58.970Z,30.25
2022-12-23T14:08:46.372Z,29.67
2022-12-23T14:11:34.811Z,28.42
2022-12-23T14:14:24.290Z,27.98
2022-12-23T14:17:31.115Z,30.95
2022-12-23T14:20:36.418Z,27.67
2022-12-23T14:23:43.092Z,31.83
2022-12-23T14:26:35.844Z,28.88
2022-12-23T14:29:28.386Z,31.73
2022-12-23T14:32:23.117Z,27.48
2022-12-23T14:38:14.204Z,30.73
2022-12-23T14:41:19.015Z,33.08
2022-12-23T14:44:19.339Z,32.05
2022-12-23T14:47:25.430Z,28.15
2022-12-23T14:50:30.811Z,27.95
2022-12-23T14:53:21.401Z,29.02
2022-12-23T14:56:12.088Z,26.17
2022-12-23T14:59:14.222Z,31.98
2022-12-23T15:02:05.623Z,25.95
2022-12-23T15:04:54.799Z,25.13
2022-12-23T15:07:45.027Z,26.05
2022-12-23T15:10:32.128Z,28.50
2022-12-23T15:13:19.583Z,26.38
2022-12-23T15:16:06.249Z,26.95
2022-12-23T15:19:00.401Z,28.25
2022-12-23T15:21:49.232Z,29.10
2022-12-23T15:24:42.851Z,29.27
2022-12-23T15:27:30.436Z,28.27
2022-12-23T15:30:17.379Z,30.20
2022-12-23T15:33:06.365Z,29.75
2022-12-23T15:35:58.472Z,26.50
2022-12-23T15:38:44.822Z,26.90
2022-12-23T15:41:31.084Z,28.90
2022-12-23T15:44:20.711Z,28.40
2022-12-23T15:47:23.774Z,25.75
2022-12-23T15:50:16.954Z,23.48
2022-12-23T15:53:10.672Z,24.92
2022-12-23T15:56:06.911Z,26.48
2022-12-23T15:58:53.727Z,22.50
2022-12-23T16:01:42.274Z,28.50
2022-12-23T16:07:36.762Z,26.70
2022-12-23T16:10:24.038Z,29.13
2022-12-23T16:13:20.839Z,29.48
2022-12-23T16:16:20.038Z,29.60
2022-12-23T16:19:07.093Z,31.83
2022-12-23T16:21:54.160Z,36.22
2022-12-23T16:24:53.269Z,32.40
2022-12-23T16:27:45.008Z,26.23
2022-12-23T16:30:35.767Z,27.58
2022-12-23T16:33:40.976Z,25.00
2022-12-23T16:36:27.260Z,29.13
2022-12-23T16:39:23.630Z,28.52
2022-12-23T16:42:10.858Z,21.02
2022-12-23T16:44:58.868Z,22.88
2022-12-23T16:47:46.419Z,27.65
2022-12-23T16:50:35.320Z,23.45
2022-12-23T16:53:21.458Z,24.55
2022-12-23T16:56:13.017Z,25.02
2022-12-23T16:58:58.979Z,23.08
2022-12-23T17:01:49.574Z,26.92
2022-12-23T17:04:36.297Z,26.98
2022-12-23T17:07:24.501Z,29.92
2022-12-23T17:10:11.527Z,27.92
2022-12-23T17:12:57.831Z,27.25
2022-12-23T17:15:44.015Z,24.00
2022-12-23T17:21:33.290Z,23.02
2022-12-23T17:24:27.109Z,19.60
2022-12-23T17:27:15.184Z,20.88
2022-12-23T17:30:01.641Z,21.38
2022-12-23T17:32:50.517Z,16.05
2022-12-23T17:35:36.952Z,15.10
2022-12-23T17:38:24.104Z,14.45
2022-12-23T17:41:40.791Z,13.55
2022-12-23T17:47:28.621Z,16.52
2022-12-23T17:50:14.976Z,19.88
2022-12-23T17:53:10.017Z,18.02
2022-12-23T17:58:57.141Z,19.00
2022-12-23T18:01:49.392Z,21.65
2022-12-23T18:04:37.148Z,21.42
2022-12-23T18:07:27.439Z,18.42
2022-12-23T18:13:31.784Z,15.80
2022-12-23T18:16:22.287Z,15.52
2022-12-23T18:22:29.156Z,12.75
2022-12-23T18:25:16.657Z,11.27
2022-12-23T18:28:03.227Z,15.13
2022-12-23T18:30:50.668Z,11.25
2022-12-23T18:42:36.657Z,11.88
2022-12-23T18:48:44.523Z,12.32
2022-12-23T18:51:31.271Z,11.02
2022-12-23T18:54:18.060Z,13.10
2022-12-23T19:03:34.336Z,11.68
2022-12-23T19:15:00.667Z,9.63
2022-12-23T19:18:01.765Z,10.98
2022-12-23T19:24:00.064Z,10.43
2022-12-23T19:26:52.500Z,10.23
2022-12-23T19:29:51.549Z,10.13
2022-12-23T19:32:41.139Z,3.50
2022-12-23T19:35:43.082Z,8.73
2022-12-23T19:48:09.228Z,2.92
2022-12-23T19:53:46.607Z,1.42
2022-12-23T19:59:40.936Z,3.85
2022-12-23T20:02:28.755Z,2.28
2022-12-23T20:19:52.718Z,3.50
2022-12-23T20:23:05.547Z,7.00
2022-12-23T20:25:53.379Z,4.97
2022-12-23T20:46:38.844Z,4.40
2022-12-23T20:49:32.526Z,2.35
2022-12-23T20:52:21.964Z,3.53
2022-12-23T21:12:44.873Z,1.48
2022-12-23T21:15:35.152Z,1.77
2022-12-23T21:18:22.154Z,1.08
2022-12-23T21:27:09.442Z,3.55
2022-12-23T21:32:49.530Z,2.05
2022-12-23T21:47:51.712Z,2.03
2022-12-23T21:56:41.213Z,0.98
2022-12-23T21:59:34.677Z,1.77
2022-12-23T22:02:28.433Z,2.05
2022-12-23T22:14:51.228Z,2.50
2022-12-23T22:17:37.722Z,0.60
2022-12-23T22:20:26.350Z,0.98
2022-12-23T22:47:25.433Z,2.20
2022-12-23T22:50:13.621Z,1.73
2022-12-23T22:52:59.958Z,1.20
2022-12-23T22:55:57.220Z,1.70
2022-12-23T22:58:52.613Z,0.95
2022-12-23T23:01:59.259Z,2.90
2022-12-23T23:07:46.303Z,1.67
